sensor_id;sensor_type;location;lat;lon;timestamp;temperature;humidity
79491;SHT31;73788;53.048;18.472;2024-01-30T00:00:26;-0.06;80.12
79491;SHT31;73788;53.048;18.472;2024-01-30T00:03:14;-0.16;80.18
79491;SHT31;73788;53.048;18.472;2024-01-30T00:05:41;-0.24;80.20
79491;SHT31;73788;53.048;18.472;2024-01-30T00:08:08;-0.34;80.20
79491;SHT31;73788;53.048;18.472;2024-01-30T00:10:35;-0.43;80.20
79491;SHT31;73788;53.048;18.472;2024-01-30T00:13:02;-0.50;80.21
79491;SHT31;73788;53.048;18.472;2024-01-30T00:15:30;-0.58;80.24
79491;SHT31;73788;53.048;18.472;2024-01-30T00:17:57;-0.69;80.28
79491;SHT31;73788;53.048;18.472;2024-01-30T00:20:24;-0.73;80.30
79491;SHT31;73788;53.048;18.472;2024-01-30T00:22:51;-0.79;80.30
79491;SHT31;73788;53.048;18.472;2024-01-30T00:25:18;-0.85;80.30
79491;SHT31;73788;53.048;18.472;2024-01-30T00:27:45;-0.88;80.31
79491;SHT31;73788;53.048;18.472;2024-01-30T00:30:13;-0.87;80.39
79491;SHT31;73788;53.048;18.472;2024-01-30T00:32:40;-0.87;80.40
79491;SHT31;73788;53.048;18.472;2024-01-30T00:35:07;-0.83;80.40
79491;SHT31;73788;53.048;18.472;2024-01-30T00:37:36;-0.81;80.44
79491;SHT31;73788;53.048;18.472;2024-01-30T00:40:03;-0.83;80.50
79491;SHT31;73788;53.048;18.472;2024-01-30T00:42:32;-0.91;80.50
79491;SHT31;73788;53.048;18.472;2024-01-30T00:44:59;-0.92;80.50
79491;SHT31;73788;53.048;18.472;2024-01-30T00:47:26;-0.94;80.51
79491;SHT31;73788;53.048;18.472;2024-01-30T00:49:55;-1.01;80.52
79491;SHT31;73788;53.048;18.472;2024-01-30T00:52:22;-1.07;80.56
79491;SHT31;73788;53.048;18.472;2024-01-30T00:54:49;-1.10;80.59
79491;SHT31;73788;53.048;18.472;2024-01-30T00:57:16;-1.12;80.60
79491;SHT31;73788;53.048;18.472;2024-01-30T00:59:43;-1.08;80.62
79491;SHT31;73788;53.048;18.472;2024-01-30T01:02:11;-0.97;80.69
79491;SHT31;73788;53.048;18.472;2024-01-30T01:04:38;-0.85;80.70
79491;SHT31;73788;53.048;18.472;2024-01-30T01:07:05;-0.72;80.76
79491;SHT31;73788;53.048;18.472;2024-01-30T01:09:32;-0.63;80.80
79491;SHT31;73788;53.048;18.472;2024-01-30T01:11:59;-0.53;80.80
79491;SHT31;73788;53.048;18.472;2024-01-30T01:14:26;-0.40;80.88
79491;SHT31;73788;53.048;18.472;2024-01-30T01:16:53;-0.32;80.90
79491;SHT31;73788;53.048;18.472;2024-01-30T01:19:20;-0.25;80.92
79491;SHT31;73788;53.048;18.472;2024-01-30T01:21:48;-0.26;80.96
79491;SHT31;73788;53.048;18.472;2024-01-30T01:24:15;-0.26;80.98
79491;SHT31;73788;53.048;18.472;2024-01-30T01:26:42;-0.29;81.00
79491;SHT31;73788;53.048;18.472;2024-01-30T01:29:09;-0.31;81.00
79491;SHT31;73788;53.048;18.472;2024-01-30T01:31:38;-0.29;81.06
79491;SHT31;73788;53.048;18.472;2024-01-30T01:34:10;-0.29;81.09
79491;SHT31;73788;53.048;18.472;2024-01-30T01:36:38;-0.30;81.10
79491;SHT31;73788;53.048;18.472;2024-01-30T01:39:06;-0.32;81.10
79491;SHT31;73788;53.048;18.472;2024-01-30T01:41:33;-0.35;81.12
79491;SHT31;73788;53.048;18.472;2024-01-30T01:44:00;-0.35;81.15
79491;SHT31;73788;53.048;18.472;2024-01-30T01:46:27;-0.34;81.20
79491;SHT31;73788;53.048;18.472;2024-01-30T01:48:59;-0.27;81.20
79491;SHT31;73788;53.048;18.472;2024-01-30T01:51:29;-0.22;81.23
79491;SHT31;73788;53.048;18.472;2024-01-30T01:54:00;-0.23;81.26
79491;SHT31;73788;53.048;18.472;2024-01-30T01:56:31;-0.26;81.28
79491;SHT31;73788;53.048;18.472;2024-01-30T01:59:00;-0.29;81.30
79491;SHT31;73788;53.048;18.472;2024-01-30T02:01:37;-0.31;81.30
79491;SHT31;73788;53.048;18.472;2024-01-30T02:04:08;-0.31;81.31
79491;SHT31;73788;53.048;18.472;2024-01-30T02:06:35;-0.37;81.31
79491;SHT31;73788;53.048;18.472;2024-01-30T02:09:02;-0.43;81.38
79491;SHT31;73788;53.048;18.472;2024-01-30T02:11:31;-0.43;81.40
79491;SHT31;73788;53.048;18.472;2024-01-30T02:14:02;-0.47;81.40
79491;SHT31;73788;53.048;18.472;2024-01-30T02:16:32;-0.51;81.40
79491;SHT31;73788;53.048;18.472;2024-01-30T02:18:59;-0.56;81.40
79491;SHT31;73788;53.048;18.472;2024-01-30T02:21:26;-0.59;81.44
79491;SHT31;73788;53.048;18.472;2024-01-30T02:23:54;-0.56;81.49
79491;SHT31;73788;53.048;18.472;2024-01-30T02:26:22;-0.54;81.50
79491;SHT31;73788;53.048;18.472;2024-01-30T02:28:49;-0.50;81.50
79491;SHT31;73788;53.048;18.472;2024-01-30T02:31:16;-0.47;81.51
79491;SHT31;73788;53.048;18.472;2024-01-30T02:33:44;-0.51;81.58
79491;SHT31;73788;53.048;18.472;2024-01-30T02:36:11;-0.53;81.59
79491;SHT31;73788;53.048;18.472;2024-01-30T02:38:38;-0.58;81.58
79491;SHT31;73788;53.048;18.472;2024-01-30T02:41:05;-0.67;81.60
79491;SHT31;73788;53.048;18.472;2024-01-30T02:43:32;-0.75;81.60
79491;SHT31;73788;53.048;18.472;2024-01-30T02:45:59;-0.80;81.60
79491;SHT31;73788;53.048;18.472;2024-01-30T02:48:27;-0.82;81.60
79491;SHT31;73788;53.048;18.472;2024-01-30T02:50:54;-0.84;81.61
79491;SHT31;73788;53.048;18.472;2024-01-30T02:53:21;-0.92;81.62
79491;SHT31;73788;53.048;18.472;2024-01-30T02:55:48;-1.00;81.65
79491;SHT31;73788;53.048;18.472;2024-01-30T02:58:15;-1.08;81.68
79491;SHT31;73788;53.048;18.472;2024-01-30T03:00:42;-1.17;81.66
79491;SHT31;73788;53.048;18.472;2024-01-30T03:03:10;-1.24;81.70
79491;SHT31;73788;53.048;18.472;2024-01-30T03:05:39;-1.32;81.68
79491;SHT31;73788;53.048;18.472;2024-01-30T03:08:06;-1.42;81.69
79491;SHT31;73788;53.048;18.472;2024-01-30T03:10:33;-1.47;81.70
79491;SHT31;73788;53.048;18.472;2024-01-30T03:13:00;-1.51;81.70
79491;SHT31;73788;53.048;18.472;2024-01-30T03:15:27;-1.59;81.70
79491;SHT31;73788;53.048;18.472;2024-01-30T03:17:54;-1.60;81.70
79491;SHT31;73788;53.048;18.472;2024-01-30T03:20:21;-1.60;81.72
79491;SHT31;73788;53.048;18.472;2024-01-30T03:22:48;-1.63;81.74
79491;SHT31;73788;53.048;18.472;2024-01-30T03:25:15;-1.67;81.77
79491;SHT31;73788;53.048;18.472;2024-01-30T03:27:43;-1.73;81.78
79491;SHT31;73788;53.048;18.472;2024-01-30T03:30:10;-1.76;81.80
79491;SHT31;73788;53.048;18.472;2024-01-30T03:32:37;-1.78;81.80
79491;SHT31;73788;53.048;18.472;2024-01-30T03:35:04;-1.78;81.81
79491;SHT31;73788;53.048;18.472;2024-01-30T03:37:32;-1.79;81.80
79491;SHT31;73788;53.048;18.472;2024-01-30T03:39:59;-1.83;81.82
79491;SHT31;73788;53.048;18.472;2024-01-30T03:42:26;-1.86;81.86
79491;SHT31;73788;53.048;18.472;2024-01-30T03:44:53;-1.87;81.87
79491;SHT31;73788;53.048;18.472;2024-01-30T03:47:21;-1.90;81.89
79491;SHT31;73788;53.048;18.472;2024-01-30T03:49:48;-1.96;81.90
79491;SHT31;73788;53.048;18.472;2024-01-30T03:52:15;-2.01;81.90
79491;SHT31;73788;53.048;18.472;2024-01-30T03:54:43;-2.05;81.90
79491;SHT31;73788;53.048;18.472;2024-01-30T03:57:11;-2.08;81.91
79491;SHT31;73788;53.048;18.472;2024-01-30T03:59:41;-2.07;81.96
79491;SHT31;73788;53.048;18.472;2024-01-30T04:02:12;-2.04;81.99
79491;SHT31;73788;53.048;18.472;2024-01-30T04:04:39;-2.08;81.98
79491;SHT31;73788;53.048;18.472;2024-01-30T04:07:06;-2.08;82.00
79491;SHT31;73788;53.048;18.472;2024-01-30T04:09:33;-2.06;82.00
79491;SHT31;73788;53.048;18.472;2024-01-30T04:12:00;-2.07;82.00
79491;SHT31;73788;53.048;18.472;2024-01-30T04:14:29;-2.09;82.03
79491;SHT31;73788;53.048;18.472;2024-01-30T04:16:56;-2.09;82.05
79491;SHT31;73788;53.048;18.472;2024-01-30T04:19:23;-2.08;82.07
79491;SHT31;73788;53.048;18.472;2024-01-30T04:21:51;-2.09;82.09
79491;SHT31;73788;53.048;18.472;2024-01-30T04:24:19;-2.05;82.09
79491;SHT31;73788;53.048;18.472;2024-01-30T04:26:58;-2.03;82.10
79491;SHT31;73788;53.048;18.472;2024-01-30T04:29:25;-2.02;82.10
79491;SHT31;73788;53.048;18.472;2024-01-30T04:31:52;-1.95;82.11
79491;SHT31;73788;53.048;18.472;2024-01-30T04:34:19;-1.86;82.11
79491;SHT31;73788;53.048;18.472;2024-01-30T04:36:46;-1.81;82.13
79491;SHT31;73788;53.048;18.472;2024-01-30T04:39:13;-1.65;82.18
79491;SHT31;73788;53.048;18.472;2024-01-30T04:41:40;-1.51;82.20
79491;SHT31;73788;53.048;18.472;2024-01-30T04:44:07;-1.42;82.20
79491;SHT31;73788;53.048;18.472;2024-01-30T04:46:34;-1.33;82.22
79491;SHT31;73788;53.048;18.472;2024-01-30T04:49:02;-1.32;82.24
79491;SHT31;73788;53.048;18.472;2024-01-30T04:51:29;-1.33;82.26
79491;SHT31;73788;53.048;18.472;2024-01-30T04:53:57;-1.32;82.29
79491;SHT31;73788;53.048;18.472;2024-01-30T04:56:24;-1.32;82.30
79491;SHT31;73788;53.048;18.472;2024-01-30T04:58:51;-1.30;82.30
79491;SHT31;73788;53.048;18.472;2024-01-30T05:01:18;-1.24;82.30
79491;SHT31;73788;53.048;18.472;2024-01-30T05:03:45;-1.24;82.30
79491;SHT31;73788;53.048;18.472;2024-01-30T05:06:12;-1.27;82.35
79491;SHT31;73788;53.048;18.472;2024-01-30T05:08:40;-1.27;82.38
79491;SHT31;73788;53.048;18.472;2024-01-30T05:11:07;-1.22;82.40
79491;SHT31;73788;53.048;18.472;2024-01-30T05:13:34;-1.14;82.40
79491;SHT31;73788;53.048;18.472;2024-01-30T05:16:01;-1.05;82.41
79491;SHT31;73788;53.048;18.472;2024-01-30T05:18:30;-0.92;82.44
79491;SHT31;73788;53.048;18.472;2024-01-30T05:20:57;-0.87;82.50
79491;SHT31;73788;53.048;18.472;2024-01-30T05:23:24;-0.81;82.50
79491;SHT31;73788;53.048;18.472;2024-01-30T05:25:52;-0.75;82.51
79491;SHT31;73788;53.048;18.472;2024-01-30T05:28:19;-0.72;82.53
79491;SHT31;73788;53.048;18.472;2024-01-30T05:30:46;-0.69;82.56
79491;SHT31;73788;53.048;18.472;2024-01-30T05:33:13;-0.68;82.59
79491;SHT31;73788;53.048;18.472;2024-01-30T05:35:40;-0.61;82.59
79491;SHT31;73788;53.048;18.472;2024-01-30T05:38:07;-0.57;82.60
79491;SHT31;73788;53.048;18.472;2024-01-30T05:40:34;-0.51;82.61
79491;SHT31;73788;53.048;18.472;2024-01-30T05:43:01;-0.41;82.69
79491;SHT31;73788;53.048;18.472;2024-01-30T05:45:29;-0.35;82.70
79491;SHT31;73788;53.048;18.472;2024-01-30T05:47:56;-0.33;82.70
79491;SHT31;73788;53.048;18.472;2024-01-30T05:50:23;-0.32;82.70
79491;SHT31;73788;53.048;18.472;2024-01-30T05:52:51;-0.30;82.71
79491;SHT31;73788;53.048;18.472;2024-01-30T05:55:19;-0.29;82.71
79491;SHT31;73788;53.048;18.472;2024-01-30T05:57:46;-0.29;82.73
79491;SHT31;73788;53.048;18.472;2024-01-30T06:00:13;-0.27;82.80
79491;SHT31;73788;53.048;18.472;2024-01-30T06:02:41;-0.27;82.79
79491;SHT31;73788;53.048;18.472;2024-01-30T06:05:08;-0.26;82.80
79491;SHT31;73788;53.048;18.472;2024-01-30T06:07:35;-0.22;82.80
79491;SHT31;73788;53.048;18.472;2024-01-30T06:10:02;-0.18;82.80
79491;SHT31;73788;53.048;18.472;2024-01-30T06:12:30;-0.14;82.81
79491;SHT31;73788;53.048;18.472;2024-01-30T06:14:57;-0.13;82.87
79491;SHT31;73788;53.048;18.472;2024-01-30T06:17:24;-0.14;82.88
79491;SHT31;73788;53.048;18.472;2024-01-30T06:19:51;-0.14;82.90
79491;SHT31;73788;53.048;18.472;2024-01-30T06:22:19;-0.13;82.90
79491;SHT31;73788;53.048;18.472;2024-01-30T06:24:46;-0.08;82.90
79491;SHT31;73788;53.048;18.472;2024-01-30T06:27:16;-0.07;82.90
79491;SHT31;73788;53.048;18.472;2024-01-30T06:29:44;-0.08;82.91
79491;SHT31;73788;53.048;18.472;2024-01-30T06:32:11;-0.10;82.91
79491;SHT31;73788;53.048;18.472;2024-01-30T06:34:38;-0.08;82.94
79491;SHT31;73788;53.048;18.472;2024-01-30T06:37:06;-0.02;82.99
79491;SHT31;73788;53.048;18.472;2024-01-30T06:39:33;0.00;82.99
79491;SHT31;73788;53.048;18.472;2024-01-30T06:42:01;0.02;83.00
79491;SHT31;73788;53.048;18.472;2024-01-30T06:44:28;0.07;83.00
79491;SHT31;73788;53.048;18.472;2024-01-30T06:46:55;0.07;83.01
79491;SHT31;73788;53.048;18.472;2024-01-30T06:49:22;0.09;83.01
79491;SHT31;73788;53.048;18.472;2024-01-30T06:51:49;0.11;83.01
79491;SHT31;73788;53.048;18.472;2024-01-30T06:54:16;0.12;83.06
79491;SHT31;73788;53.048;18.472;2024-01-30T06:56:43;0.14;83.10
79491;SHT31;73788;53.048;18.472;2024-01-30T06:59:10;0.15;83.07
79491;SHT31;73788;53.048;18.472;2024-01-30T07:01:37;0.18;83.10
79491;SHT31;73788;53.048;18.472;2024-01-30T07:04:05;0.26;83.10
79491;SHT31;73788;53.048;18.472;2024-01-30T07:06:32;0.34;83.10
79491;SHT31;73788;53.048;18.472;2024-01-30T07:08:59;0.44;83.13
79491;SHT31;73788;53.048;18.472;2024-01-30T07:11:26;0.52;83.17
79491;SHT31;73788;53.048;18.472;2024-01-30T07:13:55;0.58;83.18
79491;SHT31;73788;53.048;18.472;2024-01-30T07:16:22;0.64;83.20
79491;SHT31;73788;53.048;18.472;2024-01-30T07:18:49;0.72;83.20
79491;SHT31;73788;53.048;18.472;2024-01-30T07:21:17;0.79;83.23
79491;SHT31;73788;53.048;18.472;2024-01-30T07:23:44;0.88;83.26
79491;SHT31;73788;53.048;18.472;2024-01-30T07:26:11;0.96;83.26
79491;SHT31;73788;53.048;18.472;2024-01-30T07:28:38;1.04;83.30
79491;SHT31;73788;53.048;18.472;2024-01-30T07:31:05;1.13;83.30
79491;SHT31;73788;53.048;18.472;2024-01-30T07:33:33;1.21;83.32
79491;SHT31;73788;53.048;18.472;2024-01-30T07:36:00;1.28;83.33
79491;SHT31;73788;53.048;18.472;2024-01-30T07:38:27;1.34;83.34
79491;SHT31;73788;53.048;18.472;2024-01-30T07:40:54;1.42;83.39
79491;SHT31;73788;53.048;18.472;2024-01-30T07:43:21;1.51;83.40
79491;SHT31;73788;53.048;18.472;2024-01-30T07:45:49;1.61;83.40
79491;SHT31;73788;53.048;18.472;2024-01-30T07:48:16;1.71;83.41
79491;SHT31;73788;53.048;18.472;2024-01-30T07:50:43;1.78;83.41
79491;SHT31;73788;53.048;18.472;2024-01-30T07:53:10;1.83;83.46
79491;SHT31;73788;53.048;18.472;2024-01-30T07:55:37;1.89;83.49
79491;SHT31;73788;53.048;18.472;2024-01-30T07:58:05;1.97;83.49
79491;SHT31;73788;53.048;18.472;2024-01-30T08:00:32;2.04;83.50
79491;SHT31;73788;53.048;18.472;2024-01-30T08:02:59;2.10;83.50
79491;SHT31;73788;53.048;18.472;2024-01-30T08:05:26;2.19;83.51
79491;SHT31;73788;53.048;18.472;2024-01-30T08:07:53;2.25;83.52
79491;SHT31;73788;53.048;18.472;2024-01-30T08:10:20;2.32;83.53
79491;SHT31;73788;53.048;18.472;2024-01-30T08:12:47;2.41;83.58
79491;SHT31;73788;53.048;18.472;2024-01-30T08:15:14;2.48;83.59
79491;SHT31;73788;53.048;18.472;2024-01-30T08:17:42;2.58;83.60
79491;SHT31;73788;53.048;18.472;2024-01-30T08:20:09;2.70;83.60
79491;SHT31;73788;53.048;18.472;2024-01-30T08:22:38;2.82;83.62
79491;SHT31;73788;53.048;18.472;2024-01-30T08:25:09;2.95;83.67
79491;SHT31;73788;53.048;18.472;2024-01-30T08:27:36;3.10;83.70
79491;SHT31;73788;53.048;18.472;2024-01-30T08:30:07;3.27;83.70
79491;SHT31;73788;53.048;18.472;2024-01-30T08:32:35;3.41;83.70
79491;SHT31;73788;53.048;18.472;2024-01-30T08:35:02;3.59;83.71
79491;SHT31;73788;53.048;18.472;2024-01-30T08:37:30;3.76;83.71
79491;SHT31;73788;53.048;18.472;2024-01-30T08:39:57;3.85;83.77
79491;SHT31;73788;53.048;18.472;2024-01-30T08:42:24;3.88;83.79
79491;SHT31;73788;53.048;18.472;2024-01-30T08:44:51;3.87;83.79
79491;SHT31;73788;53.048;18.472;2024-01-30T08:47:19;3.85;83.79
79491;SHT31;73788;53.048;18.472;2024-01-30T08:49:47;3.84;83.78
79491;SHT31;73788;53.048;18.472;2024-01-30T08:52:14;3.89;83.77
79491;SHT31;73788;53.048;18.472;2024-01-30T08:54:41;3.97;83.78
79491;SHT31;73788;53.048;18.472;2024-01-30T08:57:08;3.99;83.76
79491;SHT31;73788;53.048;18.472;2024-01-30T08:59:35;4.00;83.79
79491;SHT31;73788;53.048;18.472;2024-01-30T09:02:03;4.04;83.80
79491;SHT31;73788;53.048;18.472;2024-01-30T09:04:30;4.09;83.80
79491;SHT31;73788;53.048;18.472;2024-01-30T09:06:58;4.18;83.79
79491;SHT31;73788;53.048;18.472;2024-01-30T09:09:25;4.31;83.80
79491;SHT31;73788;53.048;18.472;2024-01-30T09:11:52;4.58;83.80
79491;SHT31;73788;53.048;18.472;2024-01-30T09:14:19;4.77;83.80
79491;SHT31;73788;53.048;18.472;2024-01-30T09:16:46;4.93;83.80
79491;SHT31;73788;53.048;18.472;2024-01-30T09:19:15;5.12;83.80
79491;SHT31;73788;53.048;18.472;2024-01-30T09:21:42;5.34;83.87
79491;SHT31;73788;53.048;18.472;2024-01-30T09:24:09;5.55;83.88
79491;SHT31;73788;53.048;18.472;2024-01-30T09:26:36;5.71;83.89
79491;SHT31;73788;53.048;18.472;2024-01-30T09:29:03;5.83;83.89
79491;SHT31;73788;53.048;18.472;2024-01-30T09:31:31;5.94;83.88
79491;SHT31;73788;53.048;18.472;2024-01-30T09:33:58;6.06;83.90
79491;SHT31;73788;53.048;18.472;2024-01-30T09:36:25;6.14;83.88
79491;SHT31;73788;53.048;18.472;2024-01-30T09:38:52;6.33;83.88
79491;SHT31;73788;53.048;18.472;2024-01-30T09:41:19;6.60;83.90
79491;SHT31;73788;53.048;18.472;2024-01-30T09:43:50;6.76;83.88
79491;SHT31;73788;53.048;18.472;2024-01-30T09:46:20;6.86;83.87
79491;SHT31;73788;53.048;18.472;2024-01-30T09:48:55;6.99;83.85
79491;SHT31;73788;53.048;18.472;2024-01-30T09:51:24;7.14;83.82
79491;SHT31;73788;53.048;18.472;2024-01-30T09:53:53;7.32;83.81
79491;SHT31;73788;53.048;18.472;2024-01-30T09:56:21;7.43;83.80
79491;SHT31;73788;53.048;18.472;2024-01-30T09:58:48;7.53;83.80
79491;SHT31;73788;53.048;18.472;2024-01-30T10:01:16;7.44;83.74
79491;SHT31;73788;53.048;18.472;2024-01-30T10:03:45;7.33;83.70
79491;SHT31;73788;53.048;18.472;2024-01-30T10:06:12;7.44;83.70
79491;SHT31;73788;53.048;18.472;2024-01-30T10:08:42;7.51;83.64
79491;SHT31;73788;53.048;18.472;2024-01-30T10:11:09;7.58;83.61
79491;SHT31;73788;53.048;18.472;2024-01-30T10:13:36;7.71;83.60
79491;SHT31;73788;53.048;18.472;2024-01-30T10:16:05;7.86;83.60
79491;SHT31;73788;53.048;18.472;2024-01-30T10:18:33;8.20;83.57
79491;SHT31;73788;53.048;18.472;2024-01-30T10:21:00;8.48;83.54
79491;SHT31;73788;53.048;18.472;2024-01-30T10:23:28;8.75;83.50
79491;SHT31;73788;53.048;18.472;2024-01-30T10:25:55;8.90;83.46
79491;SHT31;73788;53.048;18.472;2024-01-30T10:28:23;9.04;83.40
79491;SHT31;73788;53.048;18.472;2024-01-30T10:30:59;9.26;83.39
79491;SHT31;73788;53.048;18.472;2024-01-30T10:33:27;9.45;83.31
79491;SHT31;73788;53.048;18.472;2024-01-30T10:36:00;9.66;83.28
79491;SHT31;73788;53.048;18.472;2024-01-30T10:38:30;9.80;83.20
79491;SHT31;73788;53.048;18.472;2024-01-30T10:40:59;10.15;83.17
79491;SHT31;73788;53.048;18.472;2024-01-30T10:43:32;10.43;83.10
79491;SHT31;73788;53.048;18.472;2024-01-30T10:46:06;10.37;83.00
79491;SHT31;73788;53.048;18.472;2024-01-30T10:48:58;10.49;82.93
79491;SHT31;73788;53.048;18.472;2024-01-30T10:51:28;10.64;82.83
79491;SHT31;73788;53.048;18.472;2024-01-30T10:53:56;10.63;82.76
79491;SHT31;73788;53.048;18.472;2024-01-30T10:56:25;11.10;82.70
79491;SHT31;73788;53.048;18.472;2024-01-30T10:58:52;11.25;82.57
79491;SHT31;73788;53.048;18.472;2024-01-30T11:01:21;11.24;82.46
79491;SHT31;73788;53.048;18.472;2024-01-30T11:03:52;11.35;82.35
79491;SHT31;73788;53.048;18.472;2024-01-30T11:06:24;11.32;82.23
79491;SHT31;73788;53.048;18.472;2024-01-30T11:09:02;11.04;82.07
79491;SHT31;73788;53.048;18.472;2024-01-30T11:11:55;10.86;81.95
79491;SHT31;73788;53.048;18.472;2024-01-30T11:14:29;10.90;81.83
79491;SHT31;73788;53.048;18.472;2024-01-30T11:16:57;10.99;81.73
79491;SHT31;73788;53.048;18.472;2024-01-30T11:19:26;11.08;81.56
79491;SHT31;73788;53.048;18.472;2024-01-30T11:21:54;11.16;81.45
79491;SHT31;73788;53.048;18.472;2024-01-30T11:24:23;11.12;81.30
79491;SHT31;73788;53.048;18.472;2024-01-30T11:26:57;11.11;81.16
79491;SHT31;73788;53.048;18.472;2024-01-30T11:29:27;11.27;81.03
79491;SHT31;73788;53.048;18.472;2024-01-30T11:31:55;11.32;80.88
79491;SHT31;73788;53.048;18.472;2024-01-30T11:34:24;11.34;80.72
79491;SHT31;73788;53.048;18.472;2024-01-30T11:36:52;11.26;80.57
79491;SHT31;73788;53.048;18.472;2024-01-30T11:39:25;11.01;80.38
79491;SHT31;73788;53.048;18.472;2024-01-30T11:41:53;10.72;80.24
79491;SHT31;73788;53.048;18.472;2024-01-30T11:44:21;10.41;80.06
79491;SHT31;73788;53.048;18.472;2024-01-30T11:46:50;10.22;79.88
79491;SHT31;73788;53.048;18.472;2024-01-30T11:49:18;10.09;79.74
79491;SHT31;73788;53.048;18.472;2024-01-30T11:51:45;10.10;79.60
79491;SHT31;73788;53.048;18.472;2024-01-30T11:54:18;10.17;79.47
79491;SHT31;73788;53.048;18.472;2024-01-30T11:56:45;10.24;79.34
79491;SHT31;73788;53.048;18.472;2024-01-30T11:59:13;10.24;79.17
79491;SHT31;73788;53.048;18.472;2024-01-30T12:01:40;10.30;79.04
79491;SHT31;73788;53.048;18.472;2024-01-30T12:04:08;10.31;78.90
79491;SHT31;73788;53.048;18.472;2024-01-30T12:06:36;10.20;78.71
79491;SHT31;73788;53.048;18.472;2024-01-30T12:09:04;10.00;78.57
79491;SHT31;73788;53.048;18.472;2024-01-30T12:11:31;9.90;78.43
79491;SHT31;73788;53.048;18.472;2024-01-30T12:13:58;9.92;78.28
79491;SHT31;73788;53.048;18.472;2024-01-30T12:16:25;9.97;78.14
79491;SHT31;73788;53.048;18.472;2024-01-30T12:18:59;9.91;77.97
79491;SHT31;73788;53.048;18.472;2024-01-30T12:21:30;9.80;77.82
79491;SHT31;73788;53.048;18.472;2024-01-30T12:23:57;9.73;77.66
79491;SHT31;73788;53.048;18.472;2024-01-30T12:26:26;9.76;77.55
79491;SHT31;73788;53.048;18.472;2024-01-30T12:28:55;9.73;77.38
79491;SHT31;73788;53.048;18.472;2024-01-30T12:31:27;9.72;77.26
79491;SHT31;73788;53.048;18.472;2024-01-30T12:33:55;9.78;77.13
79491;SHT31;73788;53.048;18.472;2024-01-30T12:36:23;9.79;77.01
79491;SHT31;73788;53.048;18.472;2024-01-30T12:38:50;9.90;76.89
79491;SHT31;73788;53.048;18.472;2024-01-30T12:41:18;10.00;76.76
79491;SHT31;73788;53.048;18.472;2024-01-30T12:43:47;10.06;76.64
79491;SHT31;73788;53.048;18.472;2024-01-30T12:46:16;10.06;76.48
79491;SHT31;73788;53.048;18.472;2024-01-30T12:48:44;10.29;76.37
79491;SHT31;73788;53.048;18.472;2024-01-30T12:51:11;10.31;76.23
79491;SHT31;73788;53.048;18.472;2024-01-30T12:53:38;10.43;76.09
79491;SHT31;73788;53.048;18.472;2024-01-30T12:56:05;10.58;75.99
79491;SHT31;73788;53.048;18.472;2024-01-30T12:58:32;10.62;75.86
79491;SHT31;73788;53.048;18.472;2024-01-30T13:00:59;10.58;75.70
79491;SHT31;73788;53.048;18.472;2024-01-30T13:03:27;10.52;75.56
79491;SHT31;73788;53.048;18.472;2024-01-30T13:05:54;10.49;75.43
79491;SHT31;73788;53.048;18.472;2024-01-30T13:08:21;10.56;75.29
79491;SHT31;73788;53.048;18.472;2024-01-30T13:10:49;10.65;75.17
79491;SHT31;73788;53.048;18.472;2024-01-30T13:13:16;10.98;75.06
79491;SHT31;73788;53.048;18.472;2024-01-30T13:15:43;10.77;74.87
79491;SHT31;73788;53.048;18.472;2024-01-30T13:18:10;10.48;74.72
79491;SHT31;73788;53.048;18.472;2024-01-30T13:20:37;10.49;74.59
79491;SHT31;73788;53.048;18.472;2024-01-30T13:23:04;10.44;74.45
79491;SHT31;73788;53.048;18.472;2024-01-30T13:25:32;10.35;74.31
79491;SHT31;73788;53.048;18.472;2024-01-30T13:27:59;10.21;74.15
79491;SHT31;73788;53.048;18.472;2024-01-30T13:30:26;10.14;74.03
79491;SHT31;73788;53.048;18.472;2024-01-30T13:32:53;9.93;73.88
79491;SHT31;73788;53.048;18.472;2024-01-30T13:35:20;9.57;73.74
79491;SHT31;73788;53.048;18.472;2024-01-30T13:37:47;9.24;73.59
79491;SHT31;73788;53.048;18.472;2024-01-30T13:40:15;8.99;73.44
79491;SHT31;73788;53.048;18.472;2024-01-30T13:42:43;8.74;73.31
79491;SHT31;73788;53.048;18.472;2024-01-30T13:45:10;8.57;73.17
79491;SHT31;73788;53.048;18.472;2024-01-30T13:47:37;8.39;73.05
79491;SHT31;73788;53.048;18.472;2024-01-30T13:50:05;8.23;72.95
79491;SHT31;73788;53.048;18.472;2024-01-30T13:52:32;8.10;72.83
79491;SHT31;73788;53.048;18.472;2024-01-30T13:55:00;8.00;72.72
79491;SHT31;73788;53.048;18.472;2024-01-30T13:57:27;7.92;72.61
79491;SHT31;73788;53.048;18.472;2024-01-30T13:59:54;7.84;72.52
79491;SHT31;73788;53.048;18.472;2024-01-30T14:02:21;7.79;72.41
79491;SHT31;73788;53.048;18.472;2024-01-30T14:04:48;7.73;72.33
79491;SHT31;73788;53.048;18.472;2024-01-30T14:07:16;7.67;72.22
79491;SHT31;73788;53.048;18.472;2024-01-30T14:09:44;7.62;72.14
79491;SHT31;73788;53.048;18.472;2024-01-30T14:12:12;7.57;72.07
79491;SHT31;73788;53.048;18.472;2024-01-30T14:14:40;7.50;71.98
79491;SHT31;73788;53.048;18.472;2024-01-30T14:17:07;7.42;71.88
79491;SHT31;73788;53.048;18.472;2024-01-30T14:19:34;7.33;71.81
79491;SHT31;73788;53.048;18.472;2024-01-30T14:22:02;7.23;71.74
79491;SHT31;73788;53.048;18.472;2024-01-30T14:24:29;7.15;71.64
79491;SHT31;73788;53.048;18.472;2024-01-30T14:26:56;7.07;71.59
79491;SHT31;73788;53.048;18.472;2024-01-30T14:29:23;6.99;71.51
79491;SHT31;73788;53.048;18.472;2024-01-30T14:31:50;6.90;71.43
79491;SHT31;73788;53.048;18.472;2024-01-30T14:34:18;6.84;71.36
79491;SHT31;73788;53.048;18.472;2024-01-30T14:36:45;6.79;71.30
79491;SHT31;73788;53.048;18.472;2024-01-30T14:39:13;6.71;71.22
79491;SHT31;73788;53.048;18.472;2024-01-30T14:41:40;6.65;71.17
79491;SHT31;73788;53.048;18.472;2024-01-30T14:44:07;6.56;71.11
79491;SHT31;73788;53.048;18.472;2024-01-30T14:46:35;6.48;71.05
79491;SHT31;73788;53.048;18.472;2024-01-30T14:49:03;6.39;71.00
79491;SHT31;73788;53.048;18.472;2024-01-30T14:51:32;6.28;70.91
79491;SHT31;73788;53.048;18.472;2024-01-30T14:54:00;6.18;70.89
79491;SHT31;73788;53.048;18.472;2024-01-30T14:56:27;6.07;70.83
79491;SHT31;73788;53.048;18.472;2024-01-30T14:58:55;5.93;70.78
79491;SHT31;73788;53.048;18.472;2024-01-30T15:01:22;5.80;70.70
79491;SHT31;73788;53.048;18.472;2024-01-30T15:03:49;5.70;70.69
79491;SHT31;73788;53.048;18.472;2024-01-30T15:06:19;5.57;70.60
79491;SHT31;73788;53.048;18.472;2024-01-30T15:08:52;5.44;70.60
79491;SHT31;73788;53.048;18.472;2024-01-30T15:11:19;5.35;70.53
79491;SHT31;73788;53.048;18.472;2024-01-30T15:13:46;5.27;70.50
79491;SHT31;73788;53.048;18.472;2024-01-30T15:16:14;5.18;70.48
79491;SHT31;73788;53.048;18.472;2024-01-30T15:18:41;5.10;70.40
79491;SHT31;73788;53.048;18.472;2024-01-30T15:21:08;5.05;70.40
79491;SHT31;73788;53.048;18.472;2024-01-30T15:23:35;4.91;70.38
79491;SHT31;73788;53.048;18.472;2024-01-30T15:26:02;4.82;70.32